createdAt,value
2022-10-01T00:00:11.919Z,2.70
2022-10-01T00:02:43.070Z,3.67
2022-10-01T00:05:13.889Z,3.10
2022-10-01T00:07:47.591Z,3.60
2022-10-01T00:10:19.151Z,3.20
2022-10-01T00:12:51.252Z,3.03
2022-10-01T00:15:22.707Z,3.10
2022-10-01T00:17:53.448Z,3.20
2022-10-01T00:20:24.329Z,3.90
2022-10-01T00:22:56.662Z,3.57
2022-10-01T00:25:27.798Z,3.80
2022-10-01T00:27:58.661Z,3.73
2022-10-01T00:30:29.512Z,4.07
2022-10-01T00:33:00.251Z,3.40
2022-10-01T00:35:31.788Z,3.90
2022-10-01T00:38:04.164Z,4.00
2022-10-01T00:40:35.223Z,4.07
2022-10-01T00:43:20.460Z,3.70
2022-10-01T00:45:51.593Z,4.20
2022-10-01T00:48:23.189Z,3.10
2022-10-01T00:50:54.494Z,4.00
2022-10-01T00:53:28.367Z,3.87
2022-10-01T00:56:00.940Z,4.20
2022-10-01T00:58:31.862Z,3.80
2022-10-01T01:01:02.651Z,3.10
2022-10-01T01:03:33.422Z,3.77
2022-10-01T01:06:04.217Z,3.47
2022-10-01T01:08:36.914Z,3.97
2022-10-01T01:11:15.992Z,4.00
2022-10-01T01:13:55.059Z,3.87
2022-10-01T01:16:33.637Z,4.43
2022-10-01T01:19:11.169Z,4.40
2022-10-01T01:21:46.030Z,4.77
2022-10-01T01:24:32.556Z,4.27
2022-10-01T01:27:17.181Z,4.80
2022-10-01T01:29:54.435Z,4.00
2022-10-01T01:32:29.094Z,4.10
2022-10-01T01:35:03.035Z,4.77
2022-10-01T01:37:41.362Z,4.93
2022-10-01T01:40:15.707Z,4.13
2022-10-01T01:42:49.290Z,5.60
2022-10-01T01:45:25.992Z,4.57
2022-10-01T01:47:58.302Z,4.27
2022-10-01T01:50:32.674Z,4.13
2022-10-01T01:53:03.874Z,4.20
2022-10-01T01:55:35.967Z,3.87
2022-10-01T01:58:07.022Z,4.07
2022-10-01T02:00:40.018Z,4.80
2022-10-01T02:03:12.434Z,4.83
2022-10-01T02:05:52.692Z,4.20
2022-10-01T02:08:34.921Z,4.10
2022-10-01T02:11:19.661Z,4.63
2022-10-01T02:13:58.082Z,4.30
2022-10-01T02:16:35.770Z,4.73
2022-10-01T02:19:12.758Z,4.27
2022-10-01T02:21:46.098Z,4.70
2022-10-01T02:24:25.806Z,4.30
2022-10-01T02:26:58.575Z,5.00
2022-10-01T02:29:30.567Z,4.30
2022-10-01T02:32:04.108Z,4.13
2022-10-01T02:34:35.815Z,4.07
2022-10-01T02:37:09.229Z,4.37
2022-10-01T02:39:42.432Z,4.13
2022-10-01T02:42:17.441Z,3.70
2022-10-01T02:44:49.566Z,3.77
2022-10-01T02:47:25.930Z,4.73
2022-10-01T02:49:57.213Z,4.23
2022-10-01T02:52:34.649Z,3.80
2022-10-01T02:55:09.914Z,3.67
2022-10-01T02:57:39.795Z,3.70
2022-10-01T03:00:15.609Z,3.73
2022-10-01T03:02:48.181Z,3.80
2022-10-01T03:05:19.321Z,4.37
2022-10-01T03:07:51.119Z,3.50
2022-10-01T03:10:22.081Z,3.43
2022-10-01T03:12:52.816Z,3.03
2022-10-01T03:15:23.683Z,3.90
2022-10-01T03:17:56.850Z,3.20
2022-10-01T03:20:27.776Z,3.70
2022-10-01T03:22:58.517Z,3.80
2022-10-01T03:25:29.359Z,4.50
2022-10-01T03:28:00.305Z,4.47
2022-10-01T03:30:31.193Z,4.17
2022-10-01T03:33:03.542Z,3.50
2022-10-01T03:35:35.078Z,3.83
2022-10-01T03:38:05.823Z,3.47
2022-10-01T03:40:39.827Z,4.17
2022-10-01T03:43:10.599Z,3.87
2022-10-01T03:45:41.547Z,4.50
2022-10-01T03:48:13.993Z,4.07
2022-10-01T03:50:44.785Z,3.83
2022-10-01T03:53:15.552Z,3.70
2022-10-01T03:55:46.290Z,4.90
2022-10-01T03:58:17.087Z,4.13
2022-10-01T04:00:48.421Z,4.33
2022-10-01T04:03:21.380Z,3.80
2022-10-01T04:05:52.354Z,4.60
2022-10-01T04:08:24.544Z,4.30
2022-10-01T04:10:55.629Z,4.50
2022-10-01T04:13:26.572Z,5.07
2022-10-01T04:15:57.640Z,4.40
2022-10-01T04:18:30.907Z,4.77
2022-10-01T04:21:01.687Z,4.30
2022-10-01T04:23:32.583Z,5.50
2022-10-01T04:26:04.186Z,4.50
2022-10-01T04:28:35.157Z,4.23
2022-10-01T04:31:23.078Z,4.10
2022-10-01T04:33:56.297Z,4.00
2022-10-01T04:36:27.745Z,4.40
2022-10-01T04:39:02.367Z,4.10
2022-10-01T04:41:34.468Z,4.23
2022-10-01T04:44:05.702Z,4.30
2022-10-01T04:46:37.095Z,4.53
2022-10-01T04:49:09.614Z,4.87
2022-10-01T04:51:40.334Z,4.10
2022-10-01T04:54:12.105Z,4.27
2022-10-01T04:56:42.835Z,3.50
2022-10-01T04:59:13.546Z,4.57
2022-10-01T05:01:44.399Z,4.30
2022-10-01T05:04:16.796Z,3.63
2022-10-01T05:06:47.558Z,3.60
2022-10-01T05:09:18.291Z,3.80
2022-10-01T05:11:49.009Z,4.17
2022-10-01T05:14:20.913Z,4.33
2022-10-01T05:16:51.670Z,4.10
2022-10-01T05:19:27.896Z,4.33
2022-10-01T05:21:58.863Z,3.80
2022-10-01T05:24:29.979Z,4.20
2022-10-01T05:27:00.755Z,3.73
2022-10-01T05:29:31.522Z,3.70
2022-10-01T05:32:02.504Z,4.03
2022-10-01T05:34:34.928Z,4.30
2022-10-01T05:37:06.151Z,4.10
2022-10-01T05:39:36.937Z,4.27
2022-10-01T05:42:07.761Z,3.60
2022-10-01T05:44:41.576Z,4.47
2022-10-01T05:47:12.563Z,4.27
2022-10-01T05:49:45.452Z,4.13
2022-10-01T05:52:17.605Z,3.70
2022-10-01T05:54:48.330Z,4.17
2022-10-01T05:57:19.046Z,4.33
2022-10-01T05:59:49.790Z,4.60
2022-10-01T06:02:20.600Z,4.17
2022-10-01T06:04:52.992Z,4.23
2022-10-01T06:07:23.718Z,4.13
2022-10-01T06:09:54.454Z,4.10
2022-10-01T06:12:25.207Z,3.77
2022-10-01T06:14:55.934Z,3.80
2022-10-01T06:17:26.681Z,4.27
2022-10-01T06:19:59.029Z,3.30
2022-10-01T06:22:29.837Z,4.07
2022-10-01T06:25:00.574Z,4.03
2022-10-01T06:27:31.337Z,4.17
2022-10-01T06:30:02.067Z,3.63
2022-10-01T06:32:34.937Z,3.50
2022-10-01T06:35:08.447Z,3.47
2022-10-01T06:37:40.762Z,3.93
2022-10-01T06:40:12.483Z,4.10
2022-10-01T06:42:50.307Z,4.10
2022-10-01T06:45:24.139Z,3.60
2022-10-01T06:47:57.807Z,4.03
2022-10-01T06:50:30.207Z,4.50
2022-10-01T06:53:01.330Z,3.67
2022-10-01T06:55:33.426Z,3.70
2022-10-01T06:58:05.817Z,3.87
2022-10-01T07:00:39.821Z,4.57
2022-10-01T07:03:12.167Z,4.20
2022-10-01T07:05:44.683Z,4.53
2022-10-01T07:08:15.602Z,4.27
2022-10-01T07:10:46.512Z,4.03
2022-10-01T07:13:18.819Z,4.40
2022-10-01T07:15:49.662Z,4.77
2022-10-01T07:18:20.418Z,3.50
2022-10-01T07:20:52.797Z,4.60
2022-10-01T07:23:25.190Z,4.37
2022-10-01T07:25:56.094Z,4.57
2022-10-01T07:28:27.743Z,4.17
2022-10-01T07:31:03.934Z,4.53
2022-10-01T07:33:34.687Z,4.80
2022-10-01T07:36:08.809Z,4.50
2022-10-01T07:38:39.865Z,4.83
2022-10-01T07:41:10.629Z,4.80
2022-10-01T07:43:43.123Z,4.73
2022-10-01T07:46:13.906Z,4.97
2022-10-01T07:48:47.104Z,5.30
2022-10-01T07:51:19.503Z,4.00
2022-10-01T07:53:51.698Z,4.20
2022-10-01T07:56:22.405Z,4.80
2022-10-01T07:58:56.762Z,3.80
2022-10-01T08:01:27.745Z,4.57
2022-10-01T08:03:58.517Z,4.30
2022-10-01T08:06:30.887Z,5.23
2022-10-01T08:09:01.638Z,4.67
2022-10-01T08:11:32.541Z,4.40
2022-10-01T08:14:04.020Z,5.47
2022-10-01T08:16:35.353Z,4.90
2022-10-01T08:19:06.202Z,4.60
2022-10-01T08:21:38.905Z,4.93
2022-10-01T08:24:09.800Z,4.60
2022-10-01T08:26:40.546Z,3.90
2022-10-01T08:29:16.232Z,4.27
2022-10-01T08:31:47.811Z,4.90
2022-10-01T08:34:18.702Z,5.10
2022-10-01T08:36:53.774Z,4.90
2022-10-01T08:39:24.717Z,4.57
2022-10-01T08:42:04.274Z,4.40
2022-10-01T08:44:42.024Z,4.87
2022-10-01T08:47:19.629Z,4.90
2022-10-01T08:49:54.171Z,4.70
2022-10-01T08:52:28.472Z,5.73
2022-10-01T08:55:04.582Z,6.23
2022-10-01T08:57:42.836Z,5.30
2022-10-01T09:00:17.380Z,5.27
2022-10-01T09:02:49.263Z,4.50
2022-10-01T09:05:26.033Z,5.40
2022-10-01T09:08:07.417Z,5.50
2022-10-01T09:10:47.278Z,5.40
2022-10-01T09:13:50.308Z,6.00
2022-10-01T09:16:32.155Z,5.90
2022-10-01T09:19:16.077Z,5.23
2022-10-01T09:21:58.442Z,5.20
2022-10-01T09:24:46.473Z,4.67
2022-10-01T09:27:19.516Z,5.57
2022-10-01T09:29:54.269Z,5.87
2022-10-01T09:32:29.349Z,4.27
2022-10-01T09:35:06.742Z,5.30
2022-10-01T09:37:45.397Z,5.40
2022-10-01T09:40:24.485Z,4.87
2022-10-01T09:42:55.442Z,5.93
2022-10-01T09:45:27.636Z,5.63
2022-10-01T09:48:05.621Z,6.10
2022-10-01T09:50:43.756Z,5.17
2022-10-01T09:53:20.466Z,6.20
2022-10-01T09:55:57.152Z,5.70
2022-10-01T09:58:30.303Z,5.50
2022-10-01T10:01:02.297Z,5.67
2022-10-01T10:03:34.415Z,5.97
2022-10-01T10:06:05.872Z,5.97
2022-10-01T10:08:39.246Z,5.07
2022-10-01T10:11:13.880Z,6.13
2022-10-01T10:13:51.558Z,6.37
2022-10-01T10:16:29.405Z,5.63
2022-10-01T10:19:03.638Z,6.27
2022-10-01T10:21:36.414Z,5.73
2022-10-01T10:24:09.494Z,6.07
2022-10-01T10:26:44.086Z,5.83
2022-10-01T10:29:29.134Z,5.83
2022-10-01T10:32:00.506Z,5.97
2022-10-01T10:34:35.744Z,5.70
2022-10-01T10:37:09.887Z,5.77
2022-10-01T10:39:42.743Z,5.10
2022-10-01T10:42:17.669Z,6.23
2022-10-01T10:44:51.591Z,6.00
2022-10-01T10:47:23.975Z,6.27
2022-10-01T10:49:58.402Z,6.03
2022-10-01T10:52:33.116Z,5.73
2022-10-01T10:55:04.970Z,6.00
2022-10-01T10:57:38.602Z,5.53
2022-10-01T11:00:17.580Z,5.90
2022-10-01T11:02:56.699Z,5.00
2022-10-01T11:05:31.850Z,6.60
2022-10-01T11:08:06.290Z,6.83
2022-10-01T11:10:45.871Z,5.70
2022-10-01T11:13:35.371Z,5.83
2022-10-01T11:16:51.097Z,6.50
2022-10-01T11:19:39.130Z,5.90
2022-10-01T11:22:53.950Z,6.80
2022-10-01T11:25:36.299Z,6.63
2022-10-01T11:28:17.475Z,4.77
2022-10-01T11:30:59.596Z,6.33
2022-10-01T11:33:39.299Z,5.87
2022-10-01T11:36:19.766Z,5.77
2022-10-01T11:38:57.481Z,6.73
2022-10-01T11:41:37.606Z,6.37
2022-10-01T11:44:15.230Z,6.00
2022-10-01T11:46:55.876Z,6.67
2022-10-01T11:49:52.871Z,6.50
2022-10-01T11:52:34.986Z,7.17
2022-10-01T11:55:33.511Z,6.17
2022-10-01T11:58:27.343Z,6.10
2022-10-01T12:01:07.596Z,6.07
2022-10-01T12:03:50.800Z,6.33
2022-10-01T12:06:26.106Z,7.00
2022-10-01T12:09:05.077Z,6.10
2022-10-01T12:11:42.401Z,6.57
2022-10-01T12:14:17.450Z,5.90
2022-10-01T12:16:54.019Z,5.80
2022-10-01T12:19:29.407Z,6.50
2022-10-01T12:22:05.987Z,6.40
2022-10-01T12:24:43.219Z,6.17
2022-10-01T12:27:31.738Z,6.07
2022-10-01T12:30:07.542Z,6.00
2022-10-01T12:32:57.341Z,5.93
2022-10-01T12:35:42.858Z,6.00
2022-10-01T12:38:27.218Z,5.77
2022-10-01T12:41:06.358Z,6.30
2022-10-01T12:43:56.816Z,5.70
2022-10-01T12:46:42.210Z,5.70
2022-10-01T12:49:26.708Z,5.70
2022-10-01T12:52:08.186Z,6.57
2022-10-01T12:54:59.709Z,6.17
2022-10-01T12:57:41.007Z,6.57
2022-10-01T13:00:17.523Z,6.30
2022-10-01T13:03:19.147Z,5.53
2022-10-01T13:06:04.650Z,5.70
2022-10-01T13:08:58.485Z,6.50
2022-10-01T13:11:53.423Z,5.23
2022-10-01T13:14:25.067Z,6.20
2022-10-01T13:17:02.721Z,6.00
2022-10-01T13:19:43.040Z,5.13
2022-10-01T13:22:19.693Z,5.27
2022-10-01T13:25:01.655Z,4.77
2022-10-01T13:27:38.606Z,6.03
2022-10-01T13:30:19.204Z,5.70
2022-10-01T13:32:55.115Z,5.70
2022-10-01T13:35:34.449Z,4.90
2022-10-01T13:38:17.957Z,6.50
2022-10-01T13:41:00.928Z,6.60
2022-10-01T13:43:34.226Z,6.20
2022-10-01T13:46:11.538Z,6.63
2022-10-01T13:48:49.856Z,5.93
2022-10-01T13:51:21.038Z,5.73
2022-10-01T13:53:57.535Z,6.20
2022-10-01T13:56:37.051Z,6.93
2022-10-01T13:59:24.107Z,6.03
2022-10-01T14:01:55.241Z,5.77
2022-10-01T14:04:35.234Z,5.57
2022-10-01T14:07:14.426Z,6.90
2022-10-01T14:09:47.875Z,6.30
2022-10-01T14:12:40.715Z,5.67
2022-10-01T14:15:36.040Z,6.17
2022-10-01T14:18:12.825Z,4.80
2022-10-01T14:20:55.746Z,6.17
2022-10-01T14:23:33.738Z,6.13
2022-10-01T14:26:11.546Z,7.17
2022-10-01T14:28:54.630Z,6.10
2022-10-01T14:31:35.546Z,6.10
2022-10-01T14:34:22.928Z,6.47
2022-10-01T14:36:55.018Z,6.03
2022-10-01T14:39:27.964Z,6.70
2022-10-01T14:41:59.793Z,5.70
2022-10-01T14:44:38.213Z,7.67
2022-10-01T14:47:16.855Z,6.43
2022-10-01T14:49:47.861Z,7.83
2022-10-01T14:52:24.278Z,6.57
2022-10-01T14:55:02.070Z,7.20
2022-10-01T14:57:37.700Z,6.70
2022-10-01T15:00:17.434Z,7.20
2022-10-01T15:02:50.128Z,8.00
2022-10-01T15:05:29.404Z,6.60
2022-10-01T15:08:00.481Z,7.10
2022-10-01T15:10:31.602Z,7.50
2022-10-01T15:13:02.421Z,7.50
2022-10-01T15:15:42.187Z,7.43
2022-10-01T15:18:17.113Z,7.67
2022-10-01T15:20:59.318Z,7.87
2022-10-01T15:23:32.091Z,6.70
2022-10-01T15:26:05.777Z,7.67
2022-10-01T15:28:38.433Z,7.90
2022-10-01T15:31:11.063Z,8.40
2022-10-01T15:33:43.599Z,8.13
2022-10-01T15:36:19.222Z,6.47
2022-10-01T15:38:51.764Z,8.17
2022-10-01T15:41:33.462Z,7.37
2022-10-01T15:44:06.831Z,6.70
2022-10-01T15:46:39.737Z,7.13
2022-10-01T15:49:21.564Z,7.40
2022-10-01T15:52:13.822Z,7.57
2022-10-01T15:54:45.750Z,7.30
2022-10-01T15:57:22.045Z,7.17
2022-10-01T15:59:56.777Z,7.77
2022-10-01T16:02:33.366Z,7.20
2022-10-01T16:05:09.718Z,6.63
2022-10-01T16:07:41.083Z,5.87
2022-10-01T16:10:29.298Z,5.60
2022-10-01T16:13:00.345Z,5.30
2022-10-01T16:15:32.155Z,5.50
2022-10-01T16:18:05.713Z,5.70
2022-10-01T16:20:39.768Z,6.17
2022-10-01T16:23:44.342Z,6.17
2022-10-01T16:26:39.851Z,5.70
2022-10-01T16:29:24.838Z,6.10
2022-10-01T16:31:55.936Z,6.00
2022-10-01T16:34:30.027Z,6.43
2022-10-01T16:37:00.804Z,6.47
2022-10-01T16:39:31.551Z,6.30
2022-10-01T16:42:22.932Z,6.20
2022-10-01T16:44:54.888Z,6.13
2022-10-01T16:47:25.704Z,6.20
2022-10-01T16:49:58.068Z,6.43
2022-10-01T16:52:28.883Z,6.00
2022-10-01T16:54:59.928Z,6.13
2022-10-01T16:57:32.510Z,5.80
2022-10-01T17:00:03.560Z,6.13
2022-10-01T17:02:34.347Z,6.33
2022-10-01T17:05:06.990Z,6.50
2022-10-01T17:07:37.738Z,6.00
2022-10-01T17:10:09.340Z,5.67
2022-10-01T17:12:40.130Z,6.20
2022-10-01T17:15:16.438Z,6.20
2022-10-01T17:17:47.588Z,6.27
2022-10-01T17:20:21.237Z,6.07
2022-10-01T17:22:52.558Z,5.80
2022-10-01T17:25:24.787Z,5.40
2022-10-01T17:27:55.609Z,4.73
2022-10-01T17:30:26.393Z,6.07
2022-10-01T17:32:57.329Z,5.80
2022-10-01T17:35:30.273Z,5.73
2022-10-01T17:38:01.062Z,5.13
2022-10-01T17:40:31.799Z,5.60
2022-10-01T17:43:02.551Z,5.80
2022-10-01T17:45:33.362Z,6.20
2022-10-01T17:48:04.472Z,5.73
2022-10-01T17:50:38.998Z,5.53
2022-10-01T17:53:11.147Z,6.27
2022-10-01T17:55:43.514Z,5.40
2022-10-01T17:58:14.271Z,6.13
2022-10-01T18:00:45.147Z,5.87
2022-10-01T18:03:18.900Z,6.33
2022-10-01T18:05:51.680Z,5.27
2022-10-01T18:08:38.327Z,5.83
2022-10-01T18:11:14.585Z,6.00
2022-10-01T18:13:45.393Z,6.07
2022-10-01T18:16:19.238Z,5.50
2022-10-01T18:21:42.666Z,4.20
2022-10-01T18:24:13.699Z,4.27
2022-10-01T18:26:45.448Z,3.87
2022-10-01T18:29:21.146Z,4.00
2022-10-01T18:31:56.701Z,4.27
2022-10-01T18:34:33.660Z,4.00
2022-10-01T18:37:10.009Z,3.37
2022-10-01T18:39:43.516Z,3.97
2022-10-01T18:42:20.731Z,3.70
2022-10-01T18:44:58.543Z,3.73
2022-10-01T18:47:41.924Z,3.80
2022-10-01T18:50:34.525Z,3.00
2022-10-01T18:53:35.428Z,3.63
2022-10-01T18:56:21.282Z,2.90
2022-10-01T18:59:07.340Z,2.97
2022-10-01T19:01:51.071Z,2.67
2022-10-01T19:04:38.156Z,3.20
2022-10-01T19:07:19.529Z,2.83
2022-10-01T19:09:58.694Z,2.40
2022-10-01T19:12:43.048Z,2.70
2022-10-01T19:15:24.845Z,2.87
2022-10-01T19:18:05.879Z,2.63
2022-10-01T19:20:50.296Z,2.63
2022-10-01T19:23:48.630Z,2.20
2022-10-01T19:26:28.071Z,2.63
2022-10-01T19:29:13.061Z,2.37
2022-10-01T19:31:53.996Z,2.30
2022-10-01T19:34:30.925Z,2.50
2022-10-01T19:37:09.046Z,2.13
2022-10-01T19:39:42.258Z,2.77
2022-10-01T19:42:21.006Z,2.10
2022-10-01T19:45:01.471Z,2.57
2022-10-01T19:47:42.579Z,2.83
2022-10-01T19:50:24.942Z,2.50
2022-10-01T19:53:00.140Z,2.60
2022-10-01T19:55:37.747Z,2.80
2022-10-01T19:58:19.558Z,2.20
2022-10-01T20:00:57.493Z,2.30
2022-10-01T20:03:39.227Z,2.47
2022-10-01T20:06:16.948Z,2.60
2022-10-01T20:08:53.466Z,2.33
2022-10-01T20:11:30.506Z,2.30
2022-10-01T20:14:39.194Z,2.70
2022-10-01T20:17:18.242Z,2.50
2022-10-01T20:19:57.653Z,2.33
2022-10-01T20:22:36.591Z,2.30
2022-10-01T20:25:16.023Z,2.13
2022-10-01T20:27:55.733Z,2.53
2022-10-01T20:30:29.449Z,2.97
2022-10-01T20:33:08.078Z,2.73
2022-10-01T20:35:45.700Z,2.23
2022-10-01T20:38:20.679Z,2.43
2022-10-01T20:40:53.786Z,2.30
2022-10-01T20:43:32.150Z,2.57
2022-10-01T20:46:12.539Z,2.33
2022-10-01T20:48:46.197Z,2.60
2022-10-01T20:51:20.585Z,2.60
2022-10-01T20:54:05.514Z,2.57
2022-10-01T20:56:40.282Z,2.20
2022-10-01T20:59:18.426Z,2.53
2022-10-01T21:02:01.471Z,2.37
2022-10-01T21:04:35.733Z,2.27
2022-10-01T21:07:30.455Z,2.43
2022-10-01T21:10:03.883Z,2.20
2022-10-01T21:12:40.678Z,2.33
2022-10-01T21:15:16.074Z,2.40
2022-10-01T21:17:58.374Z,2.50
2022-10-01T21:20:50.344Z,2.90
2022-10-01T21:23:42.076Z,3.07
2022-10-01T21:26:25.226Z,2.57
2022-10-01T21:29:20.113Z,2.40
2022-10-01T21:32:05.718Z,2.53
2022-10-01T21:34:51.919Z,2.17
2022-10-01T21:37:30.143Z,2.67
2022-10-01T21:40:13.282Z,2.80
2022-10-01T21:42:55.245Z,2.50
2022-10-01T21:45:35.687Z,2.17
2022-10-01T21:48:17.803Z,2.80
2022-10-01T21:50:55.913Z,2.10
2022-10-01T21:53:48.100Z,2.70
2022-10-01T21:56:31.708Z,2.20
2022-10-01T21:59:09.136Z,2.53
2022-10-01T22:01:55.101Z,2.50
2022-10-01T22:04:34.030Z,2.97
2022-10-01T22:07:14.958Z,2.60
2022-10-01T22:09:55.369Z,2.40
2022-10-01T22:12:28.799Z,2.43
2022-10-01T22:15:02.010Z,2.83
2022-10-01T22:17:40.098Z,2.50
2022-10-01T22:20:13.735Z,2.60
2022-10-01T22:22:47.817Z,3.00
2022-10-01T22:25:18.922Z,2.73
2022-10-01T22:27:54.672Z,2.80
2022-10-01T22:30:29.592Z,3.40
2022-10-01T22:33:08.368Z,3.10
2022-10-01T22:35:46.289Z,2.70
2022-10-01T22:38:22.652Z,3.40
2022-10-01T22:40:57.859Z,3.10
2022-10-01T22:43:28.630Z,3.33
2022-10-01T22:46:24.715Z,3.60
2022-10-01T22:49:02.038Z,3.53
2022-10-01T22:51:50.590Z,3.20
2022-10-01T22:54:34.533Z,4.27
2022-10-01T22:57:16.297Z,2.97
2022-10-01T22:59:57.618Z,3.90
2022-10-01T23:02:35.815Z,3.60
2022-10-01T23:05:29.656Z,3.67
2022-10-01T23:08:08.160Z,4.00
2022-10-01T23:10:44.708Z,4.23
2022-10-01T23:13:26.915Z,4.03
2022-10-01T23:16:05.714Z,4.37
2022-10-01T23:18:45.410Z,4.00
2022-10-01T23:21:27.403Z,4.13
2022-10-01T23:24:09.851Z,4.77
2022-10-01T23:26:53.326Z,4.17
2022-10-01T23:29:52.995Z,4.43
2022-10-01T23:32:39.902Z,4.60
2022-10-01T23:35:16.620Z,4.10
2022-10-01T23:38:08.871Z,4.47
2022-10-01T23:40:43.460Z,4.03
2022-10-01T23:43:21.974Z,5.07
2022-10-01T23:45:59.794Z,4.23
2022-10-01T23:48:37.401Z,4.13
2022-10-01T23:51:15.347Z,4.30
2022-10-01T23:53:52.046Z,4.27
2022-10-01T23:56:42.916Z,4.13
2022-10-01T23:59:22.921Z,4.50
